Time;durP1;ratioP1;P1;durP2;ratioP2;P2;SDS_P1;SDS_P2;PMS_P1;PMS_P2;Temp;Humidity;BMP_temperature;BMP_pressure;BME280_temperature;BME280_humidity;BME280_pressure;Samples;Min_cycle;Max_cycle;Signal;HPM_P1;HPM_P2
2023/08/05 06:38:24;;;;;;;13.93;5.90;;;15.10;99.90;;;;;;6131291;23;20026;-87
2023/08/05 06:41:33;;;;;;;14.75;6.10;;;15.60;99.90;;;;;;6103414;23;20022;-90
2023/08/05 08:31:15;;;;;;;8.13;2.80;;;18.40;99.90;;;;;;6086930;23;20044;-91
2023/08/05 08:51:10;;;;;;;10.18;2.88;;;19.30;99.90;;;;;;6150526;23;20029;-93
2023/08/05 08:53:51;;;;;;;8.40;2.67;;;19.30;99.90;;;;;;6154448;23;20021;-91
2023/08/05 08:56:17;;;;;;;7.40;2.60;;;19.10;99.90;;;;;;6130202;23;20024;-90
2023/08/05 09:04:59;;;;;;;9.20;3.10;;;18.70;99.90;;;;;;6127335;23;20040;-89
2023/08/05 09:08:16;;;;;;;8.60;2.70;;;20.20;99.90;;;;;;6127043;23;20018;-90
2023/08/05 09:11:37;;;;;;;9.93;2.90;;;19.20;99.90;;;;;;6145135;23;20033;-91
2023/08/05 09:14:21;;;;;;;8.43;2.80;;;19.10;99.90;;;;;;5979346;24;20066;-90
2023/08/05 09:19:46;;;;;;;7.60;2.80;;;19.60;99.90;;;;;;6096530;23;20026;-90
2023/08/05 09:22:39;;;;;;;10.40;2.70;;;19.80;99.90;;;;;;6070208;23;20458;-90
2023/08/05 09:25:10;;;;;;;9.95;2.90;;;19.80;99.90;;;;;;6071469;23;20018;-89
2023/08/05 09:30:45;;;;;;;7.72;2.70;;;19.90;99.90;;;;;;6150225;23;20076;-89
2023/08/05 09:33:30;;;;;;;7.70;2.60;;;20.30;99.90;;;;;;6129526;23;20465;-90
2023/08/05 09:36:21;;;;;;;8.05;2.83;;;20.10;99.90;;;;;;6132138;23;20018;-89
2023/08/05 09:39:06;;;;;;;10.00;2.80;;;20.00;99.90;;;;;;6150709;23;20083;-89
2023/08/05 09:41:57;;;;;;;8.15;2.40;;;20.10;99.90;;;;;;6129027;23;20018;-90
2023/08/05 09:45:14;;;;;;;6.85;2.50;;;20.30;99.90;;;;;;6128299;23;20025;-89
2023/08/05 09:51:03;;;;;;;6.72;2.30;;;20.60;99.90;;;;;;6155692;23;20386;-88
2023/08/05 09:54:20;;;;;;;7.63;2.40;;;20.60;99.90;;;;;;6157238;23;20029;-88
2023/08/05 09:56:49;;;;;;;7.78;2.50;;;20.70;99.90;;;;;;6128491;23;20072;-90
2023/08/05 09:59:16;;;;;;;8.93;2.60;;;20.80;99.90;;;;;;6139162;23;20028;-89
2023/08/05 10:01:48;;;;;;;6.85;2.35;;;20.70;99.90;;;;;;6130631;23;20075;-88
2023/08/05 11:03:06;;;;;;;;;;;;;;;;;;;;;
2023/08/05 11:09:32;;;;;;;8.25;3.30;;;21.60;99.90;;;;;;5837060;24;20041;-85
2023/08/05 11:12:34;;;;;;;;;;;;;;;;;;;;;
2023/08/05 11:16:17;;;;;;;8.52;3.70;;;21.70;99.90;;;;;;5819107;24;20055;-83
2023/08/05 11:22:00;;;;;;;11.07;4.70;;;21.90;99.90;;;;;;6155455;23;20025;-86
2023/08/05 11:25:04;;;;;;;10.13;5.35;;;21.90;99.90;;;;;;6070708;23;20027;-85
2023/08/05 11:27:52;;;;;;;10.88;5.68;;;22.20;99.90;;;;;;6044824;23;20022;-85
2023/08/05 11:30:43;;;;;;;12.43;6.15;;;21.70;99.90;;;;;;6068858;23;20026;-84
2023/08/05 11:34:01;;;;;;;11.68;5.50;;;21.90;99.90;;;;;;6068907;23;20074;-85
2023/08/05 11:36:35;;;;;;;11.45;6.07;;;21.60;99.90;;;;;;6070531;23;20026;-84
2023/08/05 11:39:03;;;;;;;11.93;5.63;;;21.40;99.90;;;;;;6068967;23;20015;-85
2023/08/05 11:41:56;;;;;;;11.30;5.72;;;21.20;99.90;;;;;;6068050;23;20475;-85
2023/08/05 11:44:22;;;;;;;11.48;5.82;;;21.20;99.90;;;;;;6070817;23;20093;-82
2023/08/05 11:46:48;;;;;;;12.35;5.75;;;21.20;99.90;;;;;;6068090;23;20415;-82
2023/08/05 11:49:14;;;;;;;13.25;5.35;;;21.20;99.90;;;;;;6068118;23;20089;-81
2023/08/05 11:51:45;;;;;;;9.90;5.47;;;21.40;99.90;;;;;;6070300;23;20086;-82
2023/08/05 11:54:11;;;;;;;11.20;5.32;;;21.60;99.90;;;;;;6068883;23;20558;-82
2023/08/05 11:56:36;;;;;;;12.05;5.32;;;22.00;99.90;;;;;;6069453;23;20054;-82
2023/08/05 11:59:02;;;;;;;10.13;5.50;;;22.20;99.90;;;;;;6069073;23;20086;-82
2023/08/05 12:01:28;;;;;;;11.10;5.47;;;22.10;99.90;;;;;;6067325;23;20078;-82
2023/08/05 12:03:57;;;;;;;11.70;5.95;;;21.90;99.90;;;;;;6066201;23;20022;-82
2023/08/05 12:06:26;;;;;;;11.38;5.65;;;21.80;99.90;;;;;;6067274;23;20015;-82
2023/08/05 12:08:58;;;;;;;11.00;5.90;;;21.70;99.90;;;;;;6066103;23;20021;-82
2023/08/05 12:11:24;;;;;;;11.63;5.60;;;21.50;99.90;;;;;;6067185;23;20025;-82
2023/08/05 12:13:50;;;;;;;12.27;6.10;;;21.40;99.90;;;;;;6066638;23;20326;-82
2023/08/05 12:16:16;;;;;;;11.52;5.95;;;21.40;99.90;;;;;;6065648;23;20098;-82
2023/08/05 12:18:46;;;;;;;11.70;6.07;;;21.40;99.90;;;;;;6066358;23;20026;-82
2023/08/05 12:21:12;;;;;;;10.55;5.82;;;21.40;99.90;;;;;;6066826;23;20018;-82
2023/08/05 12:23:41;;;;;;;11.85;5.68;;;21.30;99.90;;;;;;6064979;23;20343;-82
2023/08/05 12:26:10;;;;;;;12.45;5.60;;;21.30;99.90;;;;;;6065979;23;20015;-83
2023/08/05 12:41:38;;;;;;;10.90;5.20;;;21.20;99.90;;;;;;6123214;23;20033;-86
2023/08/05 12:48:46;;;;;;;10.38;5.47;;;21.20;99.90;;;;;;6012469;23;20019;-86
2023/08/05 12:53:00;;;;;;;11.88;5.40;;;21.20;99.90;;;;;;6017813;23;20112;-89
2023/08/05 12:59:33;;;;;;;10.07;5.93;;;21.00;99.90;;;;;;6146414;23;20017;-83
2023/08/05 13:01:59;;;;;;;11.65;6.30;;;21.00;99.90;;;;;;6129511;23;20017;-83
2023/08/05 13:04:24;;;;;;;10.63;6.10;;;21.10;99.90;;;;;;6155783;23;20311;-83
2023/08/05 13:06:59;;;;;;;11.43;5.93;;;21.10;99.90;;;;;;6128004;23;20506;-83
2023/08/05 13:13:05;;;;;;;12.48;6.78;;;20.90;99.90;;;;;;6154670;23;20047;-82
2023/08/05 13:15:31;;;;;;;13.25;7.32;;;21.00;99.90;;;;;;6155554;23;20021;-81
2023/08/05 13:18:00;;;;;;;12.80;7.35;;;21.10;99.90;;;;;;6155755;23;20014;-82
2023/08/05 13:20:25;;;;;;;11.40;7.05;;;21.00;99.90;;;;;;6155010;23;20334;-82
2023/08/05 13:23:09;;;;;;;12.40;7.13;;;21.10;99.90;;;;;;6156030;23;20024;-82
2023/08/05 13:25:35;;;;;;;10.50;6.60;;;21.00;99.90;;;;;;6155287;23;20013;-81
2023/08/05 13:28:03;;;;;;;13.40;7.63;;;20.90;99.90;;;;;;6129051;23;20076;-82
2023/08/05 13:30:58;;;;;;;11.27;7.00;;;20.70;99.90;;;;;;6155356;23;20048;-84
2023/08/05 13:37:35;;;;;;;13.50;9.38;;;20.50;99.90;;;;;;6036566;23;20365;-83
2023/08/05 13:40:01;;;;;;;15.45;9.60;;;20.40;99.90;;;;;;6036574;23;20111;-82
2023/08/05 13:42:26;;;;;;;14.38;9.38;;;20.30;99.90;;;;;;6087463;23;20018;-82
2023/08/05 13:44:52;;;;;;;15.68;9.98;;;20.40;99.90;;;;;;6128544;23;20021;-83
2023/08/05 13:47:18;;;;;;;15.63;9.68;;;20.30;99.90;;;;;;6128077;23;20021;-84
2023/08/05 13:49:43;;;;;;;18.52;9.80;;;20.30;99.90;;;;;;6128360;23;20591;-84
2023/08/05 14:03:18;;;;;;;12.15;8.10;;;20.30;99.90;;;;;;6242931;22;1657725;-83
2023/08/05 14:05:43;;;;;;;11.32;7.32;;;20.10;99.90;;;;;;6281890;22;20031;-83
2023/08/05 14:08:12;;;;;;;12.90;8.15;;;20.20;99.90;;;;;;6284595;22;20012;-83
2023/08/05 14:10:38;;;;;;;11.50;7.60;;;20.10;99.90;;;;;;6283476;22;20047;-84
2023/08/05 14:13:03;;;;;;;11.65;8.05;;;20.10;99.90;;;;;;6283149;22;20016;-83
2023/08/05 14:15:35;;;;;;;13.05;8.23;;;20.00;99.90;;;;;;6283805;22;20019;-84
2023/08/05 14:18:01;;;;;;;12.02;7.85;;;19.90;99.90;;;;;;6284826;22;20455;-83
2023/08/05 14:20:27;;;;;;;12.43;7.85;;;19.90;99.90;;;;;;6284688;22;20092;-83
2023/08/05 14:22:52;;;;;;;14.32;8.15;;;19.80;99.90;;;;;;6281849;22;20347;-83
2023/08/05 14:25:18;;;;;;;12.02;8.40;;;19.70;99.90;;;;;;6282961;22;20344;-84
2023/08/05 14:31:37;;;;;;;13.20;9.48;;;19.30;99.90;;;;;;6281900;22;20673;-85
2023/08/05 14:34:15;;;;;;;12.55;9.20;;;19.30;99.90;;;;;;6282257;22;20020;-84
2023/08/05 14:36:47;;;;;;;13.02;9.15;;;19.30;99.90;;;;;;6281274;22;20015;-84
2023/08/05 14:39:14;;;;;;;13.63;8.68;;;19.40;99.90;;;;;;6281472;22;20020;-83
2023/08/05 14:42:21;;;;;;;13.23;8.90;;;19.40;99.90;;;;;;6281175;22;20041;-84
2023/08/05 14:44:46;;;;;;;12.85;8.40;;;19.20;99.90;;;;;;6280847;22;20012;-84
2023/08/05 14:47:12;;;;;;;12.70;8.40;;;19.60;99.90;;;;;;6261592;22;20538;-85
2023/08/05 14:49:41;;;;;;;9.10;3.85;;;19.50;99.90;;;;;;6256939;22;20047;-85
2023/08/05 14:52:06;;;;;;;6.15;2.08;;;19.10;99.90;;;;;;6255483;22;20019;-86
2023/08/05 14:54:51;;;;;;;5.78;2.00;;;18.40;99.90;;;;;;6257675;22;20331;-85
2023/08/05 14:57:16;;;;;;;6.55;2.38;;;17.80;99.90;;;;;;6284337;22;20026;-82
2023/08/05 14:59:57;;;;;;;7.00;1.98;;;17.30;99.90;;;;;;6281167;22;20012;-83
2023/08/05 15:02:23;;;;;;;11.85;5.05;;;16.80;99.90;;;;;;6253660;22;20360;-83
2023/08/05 15:11:45;;;;;;;;;;;15.60;99.90;;;;;;6275896;22;20088;-85
2023/08/05 15:14:37;;;;;;;8.55;3.03;;;15.50;99.90;;;;;;6275876;22;20295;-86
2023/08/05 15:17:11;;;;;;;9.85;3.78;;;15.20;99.90;;;;;;6238378;22;20081;-85
2023/08/05 15:26:51;;;;;;;9.13;3.40;;;15.20;99.90;;;;;;6290251;22;20019;-85
2023/08/05 15:29:19;;;;;;;7.60;2.67;;;15.20;99.90;;;;;;6280752;22;20012;-86
2023/08/05 15:31:45;;;;;;;8.35;2.90;;;15.20;99.90;;;;;;6305004;22;20069;-85
2023/08/05 15:44:53;;;;;;;8.40;2.83;;;15.30;99.90;;;;;;6298537;22;20027;-86
2023/08/05 15:48:22;;;;;;;;;;;;;;;;;;;;;
2023/08/05 15:54:17;;;;;;;10.75;3.83;;;15.20;99.90;;;;;;6301631;22;20046;-85
2023/08/05 16:00:02;;;;;;;8.27;2.75;;;15.20;99.90;;;;;;6252789;22;20023;-86
2023/08/05 16:08:55;;;;;;;8.07;3.10;;;15.20;99.90;;;;;;6246533;22;20024;-85
2023/08/05 16:11:31;;;;;;;9.07;4.35;;;15.50;99.90;;;;;;6218989;23;20060;-86
2023/08/05 16:13:56;;;;;;;9.57;4.13;;;15.20;99.90;;;;;;6245813;23;20062;-87
2023/08/05 16:16:22;;;;;;;11.07;4.50;;;15.20;99.90;;;;;;6245668;23;20463;-86
2023/08/05 16:19:06;;;;;;;12.85;4.68;;;15.30;99.90;;;;;;6218828;23;20328;-86
2023/08/05 16:21:54;;;;;;;15.73;8.05;;;15.30;99.90;;;;;;6218614;23;20399;-85
2023/08/05 16:35:49;;;;;;;11.82;5.90;;;15.20;99.90;;;;;;6293192;22;20034;-86
2023/08/05 16:38:28;;;;;;;9.27;4.30;;;15.10;99.90;;;;;;6279034;22;20465;-85
2023/08/05 16:40:53;;;;;;;13.52;8.60;;;15.20;99.90;;;;;;6279400;22;20449;-86
2023/08/05 16:43:19;;;;;;;17.50;11.18;;;15.30;99.90;;;;;;6306709;22;20027;-86
2023/08/05 16:45:46;;;;;;;12.23;6.75;;;15.20;99.90;;;;;;6279782;22;20015;-86
2023/08/05 16:48:24;;;;;;;9.57;4.80;;;15.20;99.90;;;;;;6280724;22;20061;-85
2023/08/05 16:53:25;;;;;;;14.43;7.40;;;15.20;99.90;;;;;;6306119;22;20019;-85
2023/08/05 16:55:57;;;;;;;10.25;4.60;;;15.20;99.90;;;;;;6280914;22;20045;-86
2023/08/05 16:58:41;;;;;;;12.20;5.78;;;15.90;99.90;;;;;;6280200;22;20341;-85
2023/08/05 17:01:35;;;;;;;12.02;5.15;;;15.10;99.90;;;;;;6308114;22;20081;-85
2023/08/05 17:04:04;;;;;;;10.45;4.53;;;15.80;99.90;;;;;;6277378;22;20020;-84
2023/08/05 17:06:32;;;;;;;11.38;5.05;;;15.10;99.90;;;;;;6278318;22;20068;-85
2023/08/05 17:13:49;;;;;;;10.65;5.28;;;14.90;99.90;;;;;;6305468;22;20030;-84
2023/08/05 17:20:19;;;;;;;11.48;5.63;;;14.90;99.90;;;;;;6205198;23;20092;-84
2023/08/05 17:23:03;;;;;;;11.18;5.82;;;14.90;99.90;;;;;;6286573;22;20038;-84
2023/08/05 17:25:28;;;;;;;11.63;5.60;;;14.90;99.90;;;;;;6278271;22;20027;-84
2023/08/05 17:27:57;;;;;;;11.88;6.38;;;15.70;99.90;;;;;;6278921;22;20026;-84
2023/08/05 17:30:38;;;;;;;11.65;5.63;;;14.70;99.90;;;;;;6299767;22;20432;-84
2023/08/05 17:33:13;;;;;;;11.13;5.68;;;15.50;99.90;;;;;;6277681;22;20069;-84
2023/08/05 17:35:39;;;;;;;10.88;5.88;;;14.90;99.90;;;;;;6278828;22;20015;-84
2023/08/05 17:38:20;;;;;;;12.07;5.47;;;14.80;99.90;;;;;;6279382;22;20384;-84
2023/08/05 17:41:37;;;;;;;12.18;5.30;;;14.80;99.90;;;;;;6279066;22;20102;-84
2023/08/05 19:27:32;;;;;;;;;;;;;;;;;;;;;
2023/08/05 19:30:48;;;;;;;16.88;9.70;;;14.50;99.90;;;;;;6247568;23;20098;-88
2023/08/05 19:36:26;;;;;;;16.75;8.95;;;14.40;99.90;;;;;;6282812;22;20027;-87
2023/08/05 19:38:51;;;;;;;17.60;9.48;;;14.50;99.90;;;;;;6281755;22;20023;-87
2023/08/05 19:41:19;;;;;;;16.45;9.00;;;14.40;99.90;;;;;;6283713;22;20010;-89
2023/08/05 19:44:15;;;;;;;17.13;9.32;;;14.40;99.90;;;;;;6281502;22;20015;-88
2023/08/05 19:47:04;;;;;;;16.63;9.48;;;14.50;99.90;;;;;;6303343;22;20011;-88
2023/08/05 19:49:41;;;;;;;19.13;9.68;;;14.40;99.90;;;;;;6279155;22;20088;-89
2023/08/05 19:52:32;;;;;;;15.02;9.10;;;14.30;99.90;;;;;;6276482;22;20003;-89
2023/08/05 19:55:08;;;;;;;19.58;9.68;;;14.40;99.90;;;;;;6295899;22;20090;-90
2023/08/05 19:57:39;;;;;;;18.48;10.07;;;14.40;99.90;;;;;;6309962;22;20351;-89
2023/08/05 20:00:20;;;;;;;15.68;9.50;;;15.30;99.90;;;;;;6307777;22;20022;-89
2023/08/05 20:02:46;;;;;;;18.05;9.63;;;14.40;99.90;;;;;;6282892;22;20094;-89
2023/08/05 20:05:15;;;;;;;17.85;9.80;;;14.40;99.90;;;;;;6282623;22;20015;-89
2023/08/05 20:07:52;;;;;;;20.42;10.40;;;14.20;99.90;;;;;;6280707;22;20027;-89
2023/08/05 20:10:18;;;;;;;17.55;10.02;;;14.40;99.90;;;;;;6309320;22;20127;-89
2023/08/05 20:12:53;;;;;;;18.73;10.93;;;14.40;99.90;;;;;;6278588;22;20451;-88
2023/08/05 20:15:26;;;;;;;20.20;10.73;;;14.30;99.90;;;;;;6278157;22;20042;-87
2023/08/05 20:18:18;;;;;;;18.35;10.98;;;14.20;99.90;;;;;;6299661;22;20023;-86
2023/08/05 20:20:44;;;;;;;20.67;11.90;;;13.60;99.90;;;;;;6282068;22;20072;-89
2023/08/05 20:23:27;;;;;;;19.08;11.73;;;14.30;99.90;;;;;;6279982;22;20015;-89
2023/08/05 20:26:11;;;;;;;19.23;11.35;;;14.30;99.90;;;;;;6280099;22;20057;-88
2023/08/05 20:28:56;;;;;;;24.05;13.02;;;14.70;99.90;;;;;;6242500;22;20442;-89
2023/08/05 20:31:24;;;;;;;24.38;14.13;;;14.30;99.90;;;;;;6309240;22;20098;-89
2023/08/05 20:34:19;;;;;;;22.90;14.57;;;14.40;99.90;;;;;;6280881;22;20015;-88
2023/08/05 20:37:00;;;;;;;24.00;15.07;;;15.20;99.90;;;;;;6309132;22;20080;-89
2023/08/05 20:39:25;;;;;;;25.73;15.85;;;14.30;99.90;;;;;;6285285;22;20011;-88
2023/08/05 20:41:57;;;;;;;25.45;14.95;;;14.30;99.90;;;;;;6310339;22;20077;-88
2023/08/05 20:44:23;;;;;;;26.10;15.65;;;14.30;99.90;;;;;;6283643;22;20023;-88
2023/08/05 20:46:50;;;;;;;26.85;15.48;;;14.30;99.90;;;;;;6281308;22;20034;-89
2023/08/05 20:52:00;;;;;;;25.50;15.32;;;14.30;99.90;;;;;;6306555;22;20053;-88
2023/08/05 20:54:31;;;;;;;29.05;16.27;;;14.30;99.90;;;;;;6280646;22;20063;-88
2023/08/05 20:56:58;;;;;;;30.42;16.15;;;14.30;99.90;;;;;;6279238;22;20466;-88
2023/08/05 20:59:24;;;;;;;28.33;15.98;;;14.40;99.90;;;;;;6308710;22;20016;-88
2023/08/05 21:02:11;;;;;;;27.40;16.52;;;14.30;99.90;;;;;;6278600;22;20020;-88
2023/08/05 21:07:12;;;;;;;26.35;16.13;;;14.30;99.90;;;;;;6304173;22;20027;-89
2023/08/05 21:10:12;;;;;;;27.70;16.95;;;15.20;99.90;;;;;;6306623;22;20449;-89
2023/08/05 21:12:53;;;;;;;26.40;16.35;;;14.30;99.90;;;;;;6269487;22;20019;-86
2023/08/05 21:15:19;;;;;;;26.02;15.88;;;15.00;99.90;;;;;;6280008;22;20023;-88
2023/08/05 21:17:54;;;;;;;26.48;16.63;;;14.30;99.90;;;;;;6304347;22;20025;-88
2023/08/05 21:21:32;;;;;;;26.90;17.02;;;14.30;99.90;;;;;;6278827;22;20019;-89
2023/08/05 21:24:01;;;;;;;30.25;15.95;;;14.20;99.90;;;;;;6185063;23;20028;-88
2023/08/05 21:27:01;;;;;;;28.27;16.50;;;14.20;99.90;;;;;;6214254;22;20030;-88
2023/08/05 21:29:52;;;;;;;26.15;15.63;;;14.00;99.90;;;;;;6211443;22;20011;-90
2023/08/05 21:32:23;;;;;;;27.08;16.33;;;14.20;99.90;;;;;;6280058;22;20027;-89
2023/08/05 21:36:01;;;;;;;;;;;;;;;;;;;;;
2023/08/05 21:38:38;;;;;;;23.38;14.05;;;14.10;99.90;;;;;;6185534;23;20024;-89
2023/08/05 21:41:19;;;;;;;;;;;;;;;;;;;;;
2023/08/05 21:48:11;;;;;;;22.25;13.85;;;14.10;99.90;;;;;;6288456;22;20444;-89
2023/08/05 21:50:40;;;;;;;20.60;13.20;;;14.10;99.90;;;;;;6248212;22;20335;-89
2023/08/05 21:53:43;;;;;;;20.80;12.55;;;14.70;99.90;;;;;;6254833;22;20120;-89
2023/08/05 21:56:11;;;;;;;22.00;12.98;;;14.10;99.90;;;;;;6279249;22;20057;-90
2023/08/05 21:58:37;;;;;;;20.83;12.15;;;14.10;99.90;;;;;;6279361;22;20011;-87
2023/08/05 22:01:04;;;;;;;21.52;13.15;;;14.10;99.90;;;;;;6306238;22;20399;-87
2023/08/05 22:03:29;;;;;;;19.15;11.82;;;14.10;99.90;;;;;;6279938;22;20466;-87
2023/08/05 22:06:04;;;;;;;20.58;11.32;;;14.10;99.90;;;;;;6312712;22;20019;-87
2023/08/05 22:08:33;;;;;;;20.58;10.93;;;14.10;99.90;;;;;;6282018;22;20053;-88
2023/08/05 22:11:09;;;;;;;18.20;10.93;;;14.10;99.90;;;;;;6307272;22;20012;-88
2023/08/05 22:13:35;;;;;;;17.30;10.32;;;15.00;99.90;;;;;;6280860;22;20395;-88
2023/08/05 22:16:01;;;;;;;15.82;9.75;;;14.10;99.90;;;;;;6308148;22;20312;-88
2023/08/05 22:18:36;;;;;;;17.17;10.27;;;14.00;99.90;;;;;;6309797;22;20427;-88
2023/08/05 22:21:08;;;;;;;18.15;11.07;;;15.00;99.90;;;;;;6309197;22;20015;-87
2023/08/05 22:23:52;;;;;;;19.42;11.40;;;15.10;99.90;;;;;;6312501;22;20018;-88
2023/08/05 22:26:25;;;;;;;;;;;14.00;99.90;;;;;;6283832;22;20003;-87
2023/08/05 22:29:08;;;;;;;19.90;11.00;;;14.00;99.90;;;;;;6313229;22;19977;-88
2023/08/05 22:31:46;;;;;;;17.20;10.48;;;14.00;99.90;;;;;;6283687;22;20024;-88
2023/08/05 22:34:24;;;;;;;16.85;10.25;;;14.00;99.90;;;;;;6281734;22;20047;-88
2023/08/05 22:36:50;;;;;;;18.35;10.73;;;14.00;99.90;;;;;;6280710;22;20019;-88
2023/08/05 22:42:14;;;;;;;19.85;9.80;;;14.00;99.90;;;;;;6280639;22;20046;-88
2023/08/05 22:47:28;;;;;;;17.67;9.40;;;13.90;99.90;;;;;;6280715;22;20394;-88
2023/08/05 22:49:54;;;;;;;15.90;9.55;;;13.90;99.90;;;;;;6300923;22;20005;-86
2023/08/05 22:52:20;;;;;;;18.17;10.07;;;14.00;99.90;;;;;;6300907;22;20046;-88
2023/08/05 22:54:48;;;;;;;16.45;9.48;;;13.90;99.90;;;;;;6309306;22;20101;-88
2023/08/05 22:57:13;;;;;;;16.83;9.70;;;13.90;99.90;;;;;;6280766;22;20091;-88
2023/08/05 22:59:39;;;;;;;16.50;9.75;;;13.90;99.90;;;;;;6278031;22;20085;-87
2023/08/05 23:02:05;;;;;;;20.60;9.43;;;13.90;99.90;;;;;;6280601;22;20015;-86
2023/08/05 23:04:33;;;;;;;16.02;9.85;;;13.90;99.90;;;;;;6298326;22;20019;-88
2023/08/05 23:06:59;;;;;;;17.35;9.25;;;15.10;99.90;;;;;;6280327;22;20152;-88
2023/08/05 23:09:25;;;;;;;16.10;9.18;;;14.60;99.90;;;;;;6308431;22;20015;-88
2023/08/05 23:11:51;;;;;;;18.77;10.00;;;13.90;99.90;;;;;;6307506;22;20022;-88
2023/08/05 23:14:17;;;;;;;17.55;9.35;;;13.90;99.90;;;;;;6308351;22;20431;-88
2023/08/05 23:16:43;;;;;;;16.65;8.93;;;13.90;99.90;;;;;;6279895;22;20072;-88
2023/08/05 23:19:12;;;;;;;17.00;9.60;;;14.00;99.90;;;;;;6280479;22;20019;-88
2023/08/05 23:21:41;;;;;;;18.27;8.82;;;13.90;99.90;;;;;;6280409;22;20479;-88
2023/08/05 23:24:08;;;;;;;17.85;9.10;;;13.90;99.90;;;;;;6307792;22;20053;-88
2023/08/05 23:26:34;;;;;;;15.75;8.95;;;13.90;99.90;;;;;;6282319;22;20312;-88
2023/08/05 23:28:59;;;;;;;17.05;9.02;;;14.70;99.90;;;;;;6308212;22;20453;-89
2023/08/05 23:31:50;;;;;;;14.32;8.15;;;13.90;99.90;;;;;;6306825;22;20094;-88
2023/08/05 23:34:15;;;;;;;16.42;8.82;;;13.90;99.90;;;;;;6279946;22;20015;-88
2023/08/05 23:36:41;;;;;;;15.80;8.30;;;13.90;99.90;;;;;;6308107;22;20034;-88
2023/08/05 23:39:18;;;;;;;16.10;8.30;;;13.90;99.90;;;;;;6307942;22;20019;-88
2023/08/05 23:41:47;;;;;;;15.55;8.02;;;13.80;99.90;;;;;;6308468;22;20011;-88
2023/08/05 23:44:16;;;;;;;14.57;8.27;;;13.80;99.90;;;;;;6280589;22;20102;-88
2023/08/05 23:46:42;;;;;;;14.60;8.13;;;13.80;99.90;;;;;;6307877;22;20072;-89
2023/08/05 23:49:08;;;;;;;14.35;8.23;;;13.80;99.90;;;;;;6309543;22;20411;-88
2023/08/05 23:51:34;;;;;;;15.98;8.43;;;13.80;99.90;;;;;;6305973;22;20019;-88
2023/08/05 23:54:00;;;;;;;16.42;8.48;;;13.90;99.90;;;;;;6276753;22;20043;-88
2023/08/05 23:56:27;;;;;;;16.08;8.45;;;14.30;99.90;;;;;;6277246;22;20457;-88
2023/08/05 23:58:53;;;;;;;15.23;8.25;;;13.80;99.90;;;;;;6276803;22;20396;-88
